Terminal Aerodrome Forecast
Issued by NWS Sterling, VA

Home | Current Version | Previous Version | Text Only | Print | Product List | Glossary On
Versions: 1 2 3 4 5 6 7 8 9 10 11 12 13 14 15 16 17 18 19 20
000
FTUS41 KLWX 201720
TAFCHO
TAF
KCHO 201720Z 2018/2118 VRB03KT P6SM FEW050
     FM210200 VRB03KT P6SM BKN200
     FM210700 00000KT 5SM BR BKN050
     FM211300 00000KT P6SM BKN050
     FM211600 20005KT P6SM SCT100=

USA.gov is the U.S. government's official web portal to all federal, state and local government web resources and services.